Time;durP1;ratioP1;P1;durP2;ratioP2;P2;SDS_P1;SDS_P2;PMS_P1;PMS_P2;Temp;Humidity;BMP_temperature;BMP_pressure;BME280_temperature;BME280_humidity;BME280_pressure;Samples;Min_cycle;Max_cycle;Signal;HPM_P1;HPM_P2
2022/07/09 00:00:13;;;;;;;3.60;1.80;;;19.30;99.90;;;;;;7336979;19;109090;-90
2022/07/09 00:02:40;;;;;;;5.43;2.28;;;19.30;99.90;;;;;;7340279;19;108539;-89
2022/07/09 00:05:08;;;;;;;3.78;1.83;;;19.30;99.90;;;;;;7341124;19;108202;-89
2022/07/09 00:07:43;;;;;;;2.70;2.00;;;19.30;99.90;;;;;;7340636;19;108307;-88
2022/07/09 00:10:11;;;;;;;8.80;2.15;;;19.20;99.90;;;;;;7340715;19;107968;-90
2022/07/09 00:12:38;;;;;;;3.80;1.80;;;19.10;99.90;;;;;;7345307;19;107206;-89
2022/07/09 00:15:06;;;;;;;5.10;2.47;;;19.10;99.90;;;;;;7348031;19;108259;-90
2022/07/09 00:17:33;;;;;;;5.13;2.22;;;19.10;99.90;;;;;;7352302;19;108380;-90
2022/07/09 00:20:02;;;;;;;8.02;2.42;;;19.10;99.90;;;;;;7345547;19;110751;-89
2022/07/09 00:22:29;;;;;;;6.32;2.08;;;19.00;99.90;;;;;;7346399;19;108079;-87
2022/07/09 00:24:57;;;;;;;2.80;2.30;;;19.00;99.90;;;;;;7345454;19;108359;-89
2022/07/09 00:27:24;;;;;;;3.92;1.88;;;18.90;99.90;;;;;;7344797;19;111524;-89
2022/07/09 00:29:51;;;;;;;3.45;1.98;;;18.80;99.90;;;;;;7344943;19;107893;-89
2022/07/09 00:32:18;;;;;;;6.43;2.22;;;18.80;99.90;;;;;;7344690;19;108994;-90
2022/07/09 00:34:45;;;;;;;4.47;2.17;;;18.80;99.90;;;;;;7346216;19;109227;-90
2022/07/09 00:37:12;;;;;;;4.25;2.05;;;18.70;99.90;;;;;;7346604;19;107642;-90
2022/07/09 00:39:39;;;;;;;3.38;2.13;;;18.70;99.90;;;;;;7350627;19;108004;-90
2022/07/09 00:42:09;;;;;;;4.90;2.22;;;18.70;99.90;;;;;;7347850;19;109224;-89
2022/07/09 00:44:36;;;;;;;2.85;2.00;;;18.60;99.90;;;;;;7347363;19;108438;-89
2022/07/09 00:47:09;;;;;;;3.67;2.22;;;18.60;99.90;;;;;;7348051;19;108860;-90
2022/07/09 00:49:41;;;;;;;3.80;1.90;;;18.60;99.90;;;;;;7346628;19;110531;-90
2022/07/09 00:52:12;;;;;;;5.45;2.35;;;18.60;99.90;;;;;;7347160;19;108245;-90
2022/07/09 00:54:41;;;;;;;3.47;2.53;;;18.60;99.90;;;;;;7343658;19;108294;-89
2022/07/09 00:57:09;;;;;;;2.53;2.22;;;18.60;99.90;;;;;;7348878;19;108012;-89
2022/07/09 00:59:38;;;;;;;4.63;2.65;;;18.60;99.90;;;;;;7352556;19;107895;-89
2022/07/09 01:02:07;;;;;;;4.40;2.53;;;18.60;99.90;;;;;;7345202;19;108084;-89
2022/07/09 01:04:36;;;;;;;6.72;2.63;;;18.50;99.90;;;;;;7347100;19;111074;-90
2022/07/09 01:07:04;;;;;;;6.28;2.60;;;18.50;99.90;;;;;;7347468;19;108890;-89
2022/07/09 01:09:32;;;;;;;4.47;2.50;;;18.50;99.90;;;;;;7346406;19;108660;-89
2022/07/09 01:11:59;;;;;;;4.43;2.53;;;18.50;99.90;;;;;;7347326;19;111812;-90
2022/07/09 01:14:27;;;;;;;4.22;2.63;;;18.40;99.90;;;;;;7342794;19;108525;-89
2022/07/09 01:17:03;;;;;;;4.80;2.70;;;18.40;99.90;;;;;;7341898;19;108079;-90
2022/07/09 01:19:32;;;;;;;4.05;2.45;;;18.40;99.90;;;;;;7342875;19;108559;-89
2022/07/09 01:21:59;;;;;;;3.53;2.60;;;18.40;99.90;;;;;;7348670;19;109500;-89
2022/07/09 01:24:33;;;;;;;5.10;2.40;;;18.40;99.90;;;;;;7344826;19;108248;-90
2022/07/09 01:27:00;;;;;;;3.72;2.80;;;18.30;99.90;;;;;;7347152;19;109001;-89
2022/07/09 01:29:28;;;;;;;4.15;2.63;;;18.30;99.90;;;;;;7346948;19;107297;-90
2022/07/09 01:31:55;;;;;;;3.90;2.40;;;18.30;99.90;;;;;;7345844;19;108147;-90
2022/07/09 01:34:22;;;;;;;3.22;2.50;;;18.20;99.90;;;;;;7343479;19;108962;-89
2022/07/09 01:36:49;;;;;;;3.70;2.70;;;18.20;99.90;;;;;;7344990;19;108704;-89
2022/07/09 01:39:16;;;;;;;4.20;2.58;;;18.20;99.90;;;;;;7345273;19;108479;-91
2022/07/09 01:41:43;;;;;;;5.22;3.20;;;18.20;99.90;;;;;;7346435;19;108552;-90
2022/07/09 01:44:10;;;;;;;5.47;2.40;;;18.10;99.90;;;;;;7351063;19;108060;-89
2022/07/09 01:46:37;;;;;;;6.53;2.70;;;18.10;99.90;;;;;;7342523;19;109115;-90
2022/07/09 01:49:04;;;;;;;6.20;3.03;;;17.90;99.90;;;;;;7347330;19;109516;-89
2022/07/09 01:51:34;;;;;;;6.50;3.28;;;17.80;99.90;;;;;;7345655;19;109206;-90
2022/07/09 01:54:02;;;;;;;6.57;3.00;;;17.70;99.90;;;;;;7342358;19;113010;-89
2022/07/09 01:56:29;;;;;;;4.68;2.92;;;17.60;99.90;;;;;;7347403;19;108440;-90
2022/07/09 01:58:57;;;;;;;7.03;2.80;;;17.60;99.90;;;;;;7346794;19;110494;-89
2022/07/09 02:01:24;;;;;;;6.68;2.88;;;17.60;99.90;;;;;;7345543;19;108497;-90
2022/07/09 02:03:51;;;;;;;5.97;2.90;;;17.60;99.90;;;;;;7343704;19;107929;-88
2022/07/09 02:06:18;;;;;;;3.30;2.50;;;17.60;99.90;;;;;;7347815;19;108357;-90
2022/07/09 02:08:45;;;;;;;4.90;2.50;;;17.60;99.90;;;;;;7342810;19;109240;-90
2022/07/09 02:11:12;;;;;;;3.22;2.60;;;17.60;99.90;;;;;;7344406;19;107464;-90
2022/07/09 02:13:39;;;;;;;6.53;2.92;;;17.60;99.90;;;;;;7344064;19;110185;-89
2022/07/09 02:16:08;;;;;;;3.55;2.85;;;17.60;99.90;;;;;;7346355;19;108494;-89
2022/07/09 02:18:35;;;;;;;3.58;2.45;;;17.50;99.90;;;;;;7347145;19;107939;-89
2022/07/09 02:21:05;;;;;;;4.78;2.78;;;17.50;99.90;;;;;;7343843;19;108898;-90
2022/07/09 02:23:32;;;;;;;4.88;2.80;;;17.50;99.90;;;;;;7344067;19;107569;-89
2022/07/09 02:25:59;;;;;;;5.43;2.95;;;17.40;99.90;;;;;;7343233;19;110953;-89
2022/07/09 02:28:26;;;;;;;4.25;2.78;;;17.30;99.90;;;;;;7347915;19;109205;-89
2022/07/09 02:30:54;;;;;;;4.18;2.38;;;17.40;99.90;;;;;;7341389;19;108499;-89
2022/07/09 02:33:21;;;;;;;6.82;3.15;;;17.30;99.90;;;;;;7340920;19;108645;-89
2022/07/09 02:35:55;;;;;;;6.20;2.70;;;17.30;99.90;;;;;;7343386;19;108311;-89
2022/07/09 02:38:22;;;;;;;4.22;2.38;;;17.30;99.90;;;;;;7344657;19;108203;-89
2022/07/09 02:40:49;;;;;;;3.33;2.30;;;17.30;99.90;;;;;;7344170;19;113840;-89
2022/07/09 02:43:16;;;;;;;5.18;3.05;;;17.30;99.90;;;;;;7343331;19;110924;-89
2022/07/09 02:45:43;;;;;;;4.07;2.92;;;17.10;99.90;;;;;;7342314;19;110566;-90
2022/07/09 02:48:11;;;;;;;4.28;3.30;;;17.00;99.90;;;;;;7344318;19;110944;-90
2022/07/09 02:50:38;;;;;;;3.80;2.92;;;16.90;99.90;;;;;;7346985;19;107543;-89
2022/07/09 02:53:05;;;;;;;6.05;3.10;;;16.90;99.90;;;;;;7342430;19;108765;-89
2022/07/09 02:55:32;;;;;;;6.30;2.97;;;16.90;99.90;;;;;;7338883;19;108071;-88
2022/07/09 02:57:59;;;;;;;5.63;2.45;;;16.90;99.90;;;;;;7342885;19;107943;-89
2022/07/09 03:00:26;;;;;;;5.68;3.03;;;17.00;99.90;;;;;;7341321;19;109007;-89
2022/07/09 03:02:53;;;;;;;3.75;2.70;;;17.00;99.90;;;;;;7340833;19;108404;-89
2022/07/09 03:05:20;;;;;;;6.95;2.92;;;17.00;99.90;;;;;;7340042;19;108597;-89
2022/07/09 03:07:47;;;;;;;3.78;2.65;;;17.00;99.90;;;;;;7342384;19;108923;-89
2022/07/09 03:10:14;;;;;;;8.38;3.22;;;17.00;99.90;;;;;;7346996;19;108682;-89
2022/07/09 03:12:41;;;;;;;7.03;3.25;;;17.00;99.90;;;;;;7340524;19;112477;-88
2022/07/09 03:15:09;;;;;;;3.28;2.72;;;17.00;99.90;;;;;;7341038;19;108236;-89
2022/07/09 03:17:36;;;;;;;4.30;3.22;;;17.10;99.90;;;;;;7340288;19;108298;-90
2022/07/09 03:20:03;;;;;;;6.15;3.03;;;17.00;99.90;;;;;;7341122;19;108853;-89
2022/07/09 03:22:31;;;;;;;6.95;3.00;;;17.00;99.90;;;;;;7341224;19;107751;-89
2022/07/09 03:24:58;;;;;;;4.72;2.80;;;17.00;99.90;;;;;;7341075;19;107921;-90
2022/07/09 03:27:25;;;;;;;6.93;3.55;;;17.00;99.90;;;;;;7340680;19;109048;-89
2022/07/09 03:29:52;;;;;;;6.80;2.80;;;16.90;99.90;;;;;;7341102;19;108308;-89
2022/07/09 03:32:19;;;;;;;6.70;3.00;;;16.90;99.90;;;;;;7344869;19;107889;-87
2022/07/09 03:34:46;;;;;;;3.88;3.22;;;16.80;99.90;;;;;;7341279;19;108908;-89
2022/07/09 03:37:14;;;;;;;6.13;3.38;;;16.70;99.90;;;;;;7342566;19;108861;-88
2022/07/09 03:39:41;;;;;;;4.63;3.35;;;16.60;99.90;;;;;;7341664;19;107794;-88
2022/07/09 03:42:08;;;;;;;5.07;3.05;;;16.60;99.90;;;;;;7340221;19;108603;-89
2022/07/09 03:44:35;;;;;;;4.97;3.40;;;16.60;99.90;;;;;;7338418;19;108085;-90
2022/07/09 03:47:03;;;;;;;6.88;4.30;;;16.60;99.90;;;;;;7339781;19;108940;-89
2022/07/09 03:49:30;;;;;;;10.95;4.03;;;16.60;99.90;;;;;;7342046;19;108289;-88
2022/07/09 03:51:58;;;;;;;8.20;3.67;;;16.40;99.90;;;;;;7340044;19;108876;-89
2022/07/09 03:54:42;;;;;;;5.00;3.58;;;16.30;99.90;;;;;;7344788;19;109157;-90
2022/07/09 03:57:10;;;;;;;8.23;4.43;;;16.30;99.90;;;;;;7340309;19;111424;-88
2022/07/09 03:59:37;;;;;;;6.70;3.30;;;16.40;99.90;;;;;;7340316;19;109101;-88
2022/07/09 04:02:05;;;;;;;8.10;3.97;;;16.40;99.90;;;;;;7338879;19;108191;-88
2022/07/09 04:04:39;;;;;;;6.07;4.30;;;16.50;99.90;;;;;;7341040;19;110165;-88
2022/07/09 04:07:06;;;;;;;9.48;4.70;;;16.60;99.90;;;;;;7337799;19;108985;-89
2022/07/09 04:09:33;;;;;;;9.60;5.40;;;16.60;99.90;;;;;;7338160;19;108502;-89
2022/07/09 04:12:00;;;;;;;7.97;5.35;;;16.60;99.90;;;;;;7340689;19;108535;-89
2022/07/09 04:14:27;;;;;;;12.32;5.57;;;16.60;99.90;;;;;;7338019;19;108155;-89
2022/07/09 04:16:54;;;;;;;10.63;5.40;;;16.70;99.90;;;;;;7344720;19;108188;-89
2022/07/09 04:19:22;;;;;;;5.97;4.95;;;16.70;99.90;;;;;;7341399;19;109300;-89
2022/07/09 04:21:49;;;;;;;9.68;6.20;;;16.80;99.90;;;;;;7341782;19;108200;-89
2022/07/09 04:24:16;;;;;;;14.10;6.60;;;16.80;99.90;;;;;;7341276;19;107462;-89
2022/07/09 04:26:43;;;;;;;12.02;5.70;;;16.80;99.90;;;;;;7339982;19;109326;-89
2022/07/09 04:29:10;;;;;;;11.85;7.38;;;16.90;99.90;;;;;;7339191;19;107267;-90
2022/07/09 04:31:37;;;;;;;14.15;7.47;;;16.90;99.90;;;;;;7341332;19;108230;-89
2022/07/09 04:34:05;;;;;;;10.93;7.38;;;16.80;99.90;;;;;;7339771;19;109209;-88
2022/07/09 04:36:32;;;;;;;10.40;7.30;;;16.70;99.90;;;;;;7339613;19;108320;-89
2022/07/09 04:38:59;;;;;;;17.23;9.23;;;16.80;99.90;;;;;;7346672;19;108263;-89
2022/07/09 04:41:28;;;;;;;15.32;8.32;;;16.80;99.90;;;;;;7341021;19;108276;-89
2022/07/09 04:43:55;;;;;;;11.57;8.55;;;16.90;99.90;;;;;;7337948;19;108327;-90
2022/07/09 04:46:22;;;;;;;16.58;8.77;;;17.00;99.90;;;;;;7336920;19;107664;-90
2022/07/09 04:48:50;;;;;;;16.95;9.25;;;17.10;99.90;;;;;;7339583;19;110109;-90
2022/07/09 04:51:17;;;;;;;10.10;7.93;;;17.10;99.90;;;;;;7339384;19;108172;-91
2022/07/09 04:53:44;;;;;;;10.52;8.32;;;17.20;99.90;;;;;;7341592;19;108756;-90
2022/07/09 04:56:11;;;;;;;10.90;9.15;;;17.30;99.90;;;;;;7343718;19;111061;-89
2022/07/09 04:58:38;;;;;;;10.23;9.23;;;17.40;99.90;;;;;;7355553;19;108587;-90
2022/07/09 05:01:05;;;;;;;10.48;9.27;;;17.40;99.90;;;;;;7350246;19;109214;-91
2022/07/09 05:03:32;;;;;;;14.00;9.32;;;17.50;99.90;;;;;;7346058;19;108615;-91
2022/07/09 05:05:59;;;;;;;13.10;8.80;;;17.60;99.90;;;;;;7347313;19;108048;-91
2022/07/09 05:08:26;;;;;;;15.25;9.20;;;17.70;99.90;;;;;;7349460;19;108201;-91
2022/07/09 05:10:53;;;;;;;12.43;9.43;;;17.70;99.90;;;;;;7347627;19;111207;-90
2022/07/09 05:13:21;;;;;;;14.15;9.77;;;17.80;99.90;;;;;;7350056;19;108820;-91
2022/07/09 05:15:48;;;;;;;15.57;9.52;;;17.90;99.90;;;;;;7346986;19;109634;-90
2022/07/09 05:18:15;;;;;;;15.48;11.13;;;17.90;99.90;;;;;;7350418;19;108232;-91
2022/07/09 05:20:42;;;;;;;22.00;11.55;;;17.90;99.90;;;;;;7349999;19;110242;-91
2022/07/09 05:23:09;;;;;;;29.23;12.40;;;18.00;99.90;;;;;;7343031;19;112243;-89
2022/07/09 05:25:36;;;;;;;27.00;13.27;;;18.10;99.90;;;;;;7344998;19;110523;-89
2022/07/09 05:28:03;;;;;;;24.73;14.40;;;18.10;99.90;;;;;;7343951;19;112838;-91
2022/07/09 05:30:36;;;;;;;17.58;14.30;;;18.20;99.90;;;;;;7344758;19;114104;-90
2022/07/09 05:33:05;;;;;;;25.85;14.73;;;18.30;99.90;;;;;;7345141;19;110359;-93
2022/07/09 05:35:32;;;;;;;22.60;15.80;;;18.30;99.90;;;;;;7342246;19;111790;-89
2022/07/09 05:37:59;;;;;;;28.02;16.02;;;18.40;99.90;;;;;;7343559;19;110382;-84
2022/07/09 05:40:27;;;;;;;29.85;16.88;;;18.50;99.90;;;;;;7338048;19;111766;-85
2022/07/09 05:42:54;;;;;;;28.80;16.05;;;18.60;99.90;;;;;;7343466;19;111860;-85
2022/07/09 05:45:21;;;;;;;27.48;16.70;;;18.70;99.90;;;;;;7336146;19;111013;-84
2022/07/09 05:47:48;;;;;;;37.30;17.02;;;18.80;99.90;;;;;;7336373;19;112190;-84
2022/07/09 05:50:15;;;;;;;30.02;18.50;;;18.90;99.90;;;;;;7337010;19;113592;-84
2022/07/09 05:52:42;;;;;;;31.60;18.80;;;18.90;99.90;;;;;;7340412;19;110254;-84
2022/07/09 05:55:09;;;;;;;32.80;19.02;;;19.00;99.90;;;;;;7335700;19;111457;-85
2022/07/09 05:57:37;;;;;;;26.50;18.98;;;19.10;99.90;;;;;;7336392;19;112385;-84
2022/07/09 06:00:07;;;;;;;31.63;20.27;;;19.20;99.90;;;;;;7337147;19;110844;-84
2022/07/09 06:02:34;;;;;;;25.83;19.27;;;19.30;99.90;;;;;;7335973;19;115223;-85
2022/07/09 06:05:01;;;;;;;27.48;18.35;;;19.40;99.90;;;;;;7338500;19;111815;-84
2022/07/09 06:07:28;;;;;;;26.00;17.73;;;19.40;99.90;;;;;;7335945;19;111616;-85
2022/07/09 06:09:56;;;;;;;27.33;18.30;;;19.50;99.90;;;;;;7336698;19;111407;-84
2022/07/09 06:12:23;;;;;;;25.63;18.42;;;19.60;99.90;;;;;;7336620;19;110710;-85
2022/07/09 06:14:50;;;;;;;29.90;19.17;;;19.60;99.90;;;;;;7338098;19;110866;-84
2022/07/09 06:17:17;;;;;;;24.50;18.05;;;19.70;99.90;;;;;;7336906;19;111560;-84
2022/07/09 06:19:44;;;;;;;23.02;16.83;;;19.70;99.90;;;;;;7338045;19;110551;-84
2022/07/09 06:22:11;;;;;;;22.55;17.65;;;19.80;99.90;;;;;;7337228;19;111596;-85
2022/07/09 06:24:38;;;;;;;25.63;17.48;;;19.80;99.90;;;;;;7338466;19;111967;-85
2022/07/09 06:27:05;;;;;;;27.95;18.33;;;19.80;99.90;;;;;;7342470;19;110516;-84
2022/07/09 06:29:33;;;;;;;25.27;17.48;;;19.90;99.90;;;;;;7334402;19;112129;-85
2022/07/09 06:32:00;;;;;;;25.42;17.30;;;20.00;99.90;;;;;;7336331;19;110122;-85
2022/07/09 06:34:28;;;;;;;21.92;17.05;;;20.10;99.90;;;;;;7335773;19;111864;-83
2022/07/09 06:36:55;;;;;;;19.55;17.40;;;20.20;99.90;;;;;;7332423;19;111764;-84
2022/07/09 06:42:07;;;;;;;19.60;16.02;;;20.50;99.90;;;;;;7335628;19;116256;-84
2022/07/09 06:44:35;;;;;;;22.08;16.20;;;20.60;99.90;;;;;;7335988;19;115204;-85
2022/07/09 06:47:03;;;;;;;22.98;15.25;;;20.80;99.90;;;;;;7337421;19;109837;-85
2022/07/09 06:49:30;;;;;;;18.00;13.68;;;20.90;99.90;;;;;;7342101;19;111143;-85
2022/07/09 06:51:57;;;;;;;17.65;14.30;;;21.10;99.90;;;;;;7331720;19;110335;-84
2022/07/09 06:54:25;;;;;;;15.88;13.38;;;21.20;99.90;;;;;;7336000;19;110800;-84
2022/07/09 06:56:52;;;;;;;19.70;13.48;;;21.20;99.90;;;;;;7332554;19;111027;-85
2022/07/09 06:59:21;;;;;;;18.23;12.55;;;21.30;99.90;;;;;;7327840;19;112249;-85
2022/07/09 07:01:49;;;;;;;16.77;11.07;;;21.30;99.90;;;;;;7332812;19;111421;-85
2022/07/09 07:04:16;;;;;;;16.20;12.43;;;21.30;99.90;;;;;;7336559;19;111280;-84
2022/07/09 07:06:46;;;;;;;19.83;11.00;;;21.30;99.90;;;;;;7336514;19;112214;-85
2022/07/09 07:09:14;;;;;;;14.80;10.88;;;21.30;99.90;;;;;;7341798;19;111409;-84
2022/07/09 07:11:41;;;;;;;16.33;10.55;;;21.30;99.90;;;;;;7337496;19;110208;-85
2022/07/09 07:14:08;;;;;;;14.43;9.82;;;21.30;99.90;;;;;;7337402;19;111081;-85
2022/07/09 07:16:35;;;;;;;15.50;10.10;;;21.40;99.90;;;;;;7338986;19;107906;-84
2022/07/09 07:19:02;;;;;;;16.20;10.10;;;21.40;99.90;;;;;;7339137;19;110084;-84
2022/07/09 07:21:29;;;;;;;12.30;10.18;;;21.50;99.90;;;;;;7336746;19;110339;-84
2022/07/09 07:23:56;;;;;;;29.38;11.15;;;21.50;99.90;;;;;;7334462;19;111018;-84
2022/07/09 07:26:23;;;;;;;50.58;11.30;;;21.60;99.90;;;;;;7338646;19;109989;-84
2022/07/09 07:28:51;;;;;;;73.97;12.15;;;21.70;99.90;;;;;;7336853;19;111002;-85
2022/07/09 07:31:18;;;;;;;75.78;12.25;;;21.70;99.90;;;;;;7341741;19;112368;-84
2022/07/09 07:33:45;;;;;;;95.72;14.40;;;21.80;99.90;;;;;;7339531;19;111010;-85
2022/07/09 07:36:12;;;;;;;17.23;10.75;;;21.90;99.90;;;;;;7336026;19;114944;-85
2022/07/09 07:38:39;;;;;;;16.85;10.25;;;22.00;99.90;;;;;;7337080;19;110643;-85
2022/07/09 07:41:06;;;;;;;15.75;10.18;;;22.00;99.90;;;;;;7338013;19;113452;-85
2022/07/09 07:43:33;;;;;;;14.10;9.85;;;22.10;99.90;;;;;;7338082;19;113409;-85
2022/07/09 07:46:00;;;;;;;13.40;9.93;;;22.30;99.90;;;;;;7336959;19;108953;-84
2022/07/09 07:48:35;;;;;;;14.43;10.10;;;22.40;99.90;;;;;;7339560;19;108880;-85
2022/07/09 07:51:04;;;;;;;15.43;9.32;;;22.50;99.90;;;;;;7336512;19;112025;-85
2022/07/09 07:53:31;;;;;;;14.20;9.63;;;22.60;99.90;;;;;;7345548;19;109281;-85
2022/07/09 07:56:06;;;;;;;18.00;9.85;;;22.60;99.90;;;;;;7337546;19;107971;-84
2022/07/09 07:58:34;;;;;;;16.60;10.10;;;22.70;99.90;;;;;;7339587;19;108295;-84
2022/07/09 08:01:02;;;;;;;15.20;8.85;;;22.70;99.90;;;;;;7336309;19;110770;-85
2022/07/09 08:03:29;;;;;;;12.18;8.02;;;22.70;99.90;;;;;;7336674;19;107520;-85
2022/07/09 08:05:59;;;;;;;13.45;9.23;;;22.80;99.90;;;;;;7339477;19;108948;-85
2022/07/09 08:08:27;;;;;;;35.63;10.18;;;22.90;99.90;;;;;;7339058;19;109372;-85
2022/07/09 08:10:54;;;;;;;85.90;11.10;;;23.00;99.90;;;;;;7334535;19;112327;-85
2022/07/09 08:13:21;;;;;;;26.50;11.32;;;23.10;99.90;;;;;;7333022;19;110469;-84
2022/07/09 08:15:48;;;;;;;17.35;9.80;;;23.10;99.90;;;;;;7338354;19;113229;-84
2022/07/09 08:18:16;;;;;;;20.38;9.85;;;23.10;99.90;;;;;;7336583;19;108897;-84
2022/07/09 08:20:43;;;;;;;20.70;9.18;;;23.10;99.90;;;;;;7338558;19;108003;-84
2022/07/09 08:23:10;;;;;;;16.35;9.48;;;23.10;99.90;;;;;;7337588;19;109945;-84
2022/07/09 08:25:37;;;;;;;14.65;10.52;;;23.10;99.90;;;;;;7337709;19;108933;-84
2022/07/09 08:28:05;;;;;;;22.23;10.38;;;23.20;99.90;;;;;;7333742;19;110475;-85
2022/07/09 08:30:32;;;;;;;16.77;10.90;;;23.20;99.90;;;;;;7333894;19;112543;-84
2022/07/09 08:32:59;;;;;;;16.92;9.48;;;23.20;99.90;;;;;;7340385;19;110634;-84
2022/07/09 08:35:27;;;;;;;22.38;11.88;;;23.20;99.90;;;;;;7344879;19;111061;-85
2022/07/09 08:37:54;;;;;;;15.18;10.27;;;23.20;99.90;;;;;;7342422;19;111815;-84
2022/07/09 08:40:24;;;;;;;15.18;10.20;;;23.40;99.90;;;;;;7342430;19;111659;-84
2022/07/09 08:42:53;;;;;;;23.20;10.57;;;23.50;99.90;;;;;;7340902;19;111052;-82
2022/07/09 08:45:21;;;;;;;18.23;11.90;;;23.50;99.90;;;;;;7339420;19;111996;-82
2022/07/09 08:47:48;;;;;;;17.67;11.88;;;23.70;99.90;;;;;;7339582;19;112185;-82
2022/07/09 08:50:16;;;;;;;18.50;12.85;;;23.90;99.90;;;;;;7341065;19;111917;-82
2022/07/09 08:52:43;;;;;;;18.88;13.43;;;24.10;99.90;;;;;;7340376;19;110701;-82
2022/07/09 08:55:10;;;;;;;16.25;12.02;;;24.10;99.90;;;;;;7342054;19;111430;-82
2022/07/09 08:57:38;;;;;;;19.17;12.23;;;24.20;99.90;;;;;;7339939;19;111630;-84
2022/07/09 09:00:06;;;;;;;16.58;11.98;;;24.10;99.90;;;;;;7344708;19;110358;-82
2022/07/09 09:02:39;;;;;;;23.88;12.55;;;24.00;99.90;;;;;;7341459;19;112242;-83
2022/07/09 09:05:12;;;;;;;21.17;13.43;;;24.00;99.90;;;;;;7342046;19;110383;-83
2022/07/09 09:07:39;;;;;;;20.63;13.55;;;24.10;99.90;;;;;;7341710;19;111130;-83
2022/07/09 09:10:07;;;;;;;18.75;13.32;;;24.10;99.90;;;;;;7339904;19;111768;-83
2022/07/09 09:12:34;;;;;;;21.13;12.98;;;24.20;99.90;;;;;;7342468;19;110491;-83
2022/07/09 09:15:06;;;;;;;18.90;13.50;;;24.30;99.90;;;;;;7340984;19;111619;-83
2022/07/09 09:17:33;;;;;;;17.35;12.00;;;24.40;99.90;;;;;;7338304;19;111449;-83
2022/07/09 09:20:11;;;;;;;20.45;12.68;;;24.50;99.90;;;;;;7343833;19;110025;-82
2022/07/09 09:22:53;;;;;;;23.92;12.80;;;24.60;99.90;;;;;;7336632;19;110952;-83
2022/07/09 09:25:21;;;;;;;19.80;14.20;;;24.60;99.90;;;;;;7339335;19;110628;-83
2022/07/09 09:27:52;;;;;;;22.05;13.93;;;24.60;99.90;;;;;;7338955;19;111447;-82
2022/07/09 09:30:20;;;;;;;17.27;13.85;;;24.60;99.90;;;;;;7341435;19;112196;-81
2022/07/09 09:33:01;;;;;;;20.88;13.82;;;24.50;99.90;;;;;;7340432;19;110303;-83
2022/07/09 09:35:32;;;;;;;17.65;13.07;;;24.60;99.90;;;;;;7339665;19;111316;-86
2022/07/09 09:38:00;;;;;;;18.55;12.95;;;24.70;99.90;;;;;;7337788;19;111986;-84
2022/07/09 09:40:27;;;;;;;26.13;13.85;;;25.00;99.90;;;;;;7340113;19;110478;-85
2022/07/09 09:42:58;;;;;;;20.63;14.40;;;25.10;99.90;;;;;;7344119;19;110767;-83
2022/07/09 09:45:27;;;;;;;19.77;14.30;;;25.30;99.90;;;;;;7338132;19;110007;-82
2022/07/09 09:47:54;;;;;;;27.08;15.60;;;25.30;99.90;;;;;;7339384;19;110697;-83
2022/07/09 09:50:24;;;;;;;20.92;14.82;;;25.30;99.90;;;;;;7340159;19;111813;-83
2022/07/09 09:52:54;;;;;;;20.02;14.50;;;25.30;99.90;;;;;;7340894;19;111885;-82
2022/07/09 09:55:22;;;;;;;19.77;14.30;;;25.20;99.90;;;;;;7341182;19;112718;-83
2022/07/09 09:57:51;;;;;;;16.75;12.75;;;25.10;99.90;;;;;;7338133;19;110910;-83
2022/07/09 10:00:19;;;;;;;17.92;11.27;;;25.00;99.90;;;;;;7338925;19;110124;-83
2022/07/09 10:02:47;;;;;;;14.63;10.38;;;25.00;99.90;;;;;;7341085;19;110857;-83
2022/07/09 10:05:14;;;;;;;14.13;9.75;;;25.10;99.90;;;;;;7343235;19;113615;-83
2022/07/09 10:07:42;;;;;;;13.02;9.55;;;25.20;99.90;;;;;;7341896;19;114132;-82
2022/07/09 10:10:17;;;;;;;14.15;9.80;;;25.20;99.90;;;;;;7339078;19;108457;-84
2022/07/09 10:12:45;;;;;;;11.95;9.07;;;25.30;99.90;;;;;;7341769;19;109081;-83
2022/07/09 10:15:26;;;;;;;14.05;8.77;;;25.40;99.90;;;;;;7340680;19;108299;-84
2022/07/09 10:17:54;;;;;;;13.23;9.60;;;25.40;99.90;;;;;;7338691;19;108221;-82
2022/07/09 10:20:34;;;;;;;12.35;8.70;;;25.40;99.90;;;;;;7341915;19;110911;-83
2022/07/09 10:23:03;;;;;;;12.90;9.52;;;25.40;99.90;;;;;;7339402;19;108271;-83
2022/07/09 10:25:42;;;;;;;12.88;8.85;;;25.40;99.90;;;;;;7340909;19;108250;-83
2022/07/09 10:28:17;;;;;;;14.02;8.73;;;25.50;99.90;;;;;;7347892;19;109066;-83
2022/07/09 10:30:45;;;;;;;18.25;8.55;;;25.70;99.90;;;;;;7342798;19;107221;-82
2022/07/09 10:33:19;;;;;;;12.40;8.45;;;25.70;99.90;;;;;;7342726;19;108521;-82
2022/07/09 10:35:49;;;;;;;12.45;7.10;;;25.80;99.90;;;;;;7342678;19;108288;-83
2022/07/09 10:38:19;;;;;;;9.30;6.20;;;25.70;99.90;;;;;;7340948;19;108366;-83
2022/07/09 10:40:55;;;;;;;8.90;6.00;;;25.70;99.90;;;;;;7340002;19;108317;-82
2022/07/09 10:43:39;;;;;;;10.53;5.47;;;25.60;99.80;;;;;;7341270;19;109641;-83
2022/07/09 10:46:12;;;;;;;6.10;4.75;;;25.60;99.90;;;;;;7337929;19;108585;-83
2022/07/09 10:48:39;;;;;;;10.65;4.40;;;25.70;99.90;;;;;;7341796;19;108177;-83
2022/07/09 10:51:06;;;;;;;10.43;4.50;;;25.80;99.90;;;;;;7346060;19;107583;-83
2022/07/09 10:53:33;;;;;;;8.45;4.25;;;25.80;99.90;;;;;;7341353;19;108896;-83
2022/07/09 10:56:00;;;;;;;9.00;5.05;;;25.80;99.70;;;;;;7343209;19;108014;-83
2022/07/09 10:58:29;;;;;;;11.23;4.72;;;25.50;99.70;;;;;;7337406;19;107797;-83
2022/07/09 11:00:58;;;;;;;7.13;5.13;;;25.60;99.90;;;;;;7341789;19;109460;-83
2022/07/09 11:03:30;;;;;;;8.23;4.50;;;25.40;99.80;;;;;;7339940;19;107589;-83
2022/07/09 11:05:58;;;;;;;9.25;4.25;;;25.40;99.90;;;;;;7341471;19;108151;-83
2022/07/09 11:08:25;;;;;;;4.88;3.50;;;25.30;99.80;;;;;;7340695;19;109834;-83
2022/07/09 11:10:52;;;;;;;5.88;2.83;;;25.30;99.90;;;;;;7341444;19;107149;-83
2022/07/09 11:13:24;;;;;;;5.70;2.50;;;25.30;99.90;;;;;;7345489;19;108210;-83
2022/07/09 11:15:58;;;;;;;4.95;2.53;;;25.40;99.90;;;;;;7340311;19;108323;-83
2022/07/09 11:18:27;;;;;;;6.88;1.50;;;25.50;99.60;;;;;;7338097;19;108644;-83
2022/07/09 11:20:54;;;;;;;4.53;1.45;;;25.50;99.20;;;;;;7340254;19;109157;-84
2022/07/09 11:23:21;;;;;;;4.75;1.45;;;25.30;98.10;;;;;;7339739;19;108339;-83
2022/07/09 11:25:48;;;;;;;4.07;1.20;;;25.00;98.30;;;;;;7341396;19;110154;-83
2022/07/09 11:28:20;;;;;;;3.88;1.50;;;24.80;98.90;;;;;;7341881;19;109238;-83
2022/07/09 11:31:00;;;;;;;11.88;1.30;;;24.80;99.30;;;;;;7340959;19;109543;-83
2022/07/09 11:34:10;;;;;;;5.07;1.00;;;25.10;99.10;;;;;;7347413;19;107467;-82
2022/07/09 11:36:16;;;;;;;2.97;1.00;;;25.20;99.00;;;;;;7340583;19;107460;-84
2022/07/09 11:38:50;;;;;;;1.13;0.80;;;25.30;98.70;;;;;;7338260;19;108626;-84
2022/07/09 11:41:18;;;;;;;3.10;1.10;;;25.40;98.00;;;;;;7341379;19;108405;-83
2022/07/09 11:43:50;;;;;;;1.50;0.70;;;25.40;97.60;;;;;;7341623;19;108318;-84
2022/07/09 11:46:18;;;;;;;4.68;0.75;;;25.30;97.30;;;;;;7338520;19;109506;-82
2022/07/09 11:48:52;;;;;;;2.55;0.70;;;25.40;97.70;;;;;;7341589;19;109119;-83
2022/07/09 11:51:26;;;;;;;2.78;0.77;;;25.60;98.00;;;;;;7338905;19;109984;-84
2022/07/09 11:53:54;;;;;;;4.82;0.70;;;25.70;97.50;;;;;;7339621;19;109160;-83
2022/07/09 11:56:20;;;;;;;13.30;0.73;;;25.70;97.30;;;;;;7344078;19;108230;-83
2022/07/09 11:58:52;;;;;;;1.52;0.52;;;25.70;96.20;;;;;;7338617;19;110240;-83
2022/07/09 12:01:19;;;;;;;3.42;0.70;;;25.60;96.60;;;;;;7340540;19;109233;-83
2022/07/09 12:03:47;;;;;;;5.20;0.50;;;25.50;96.40;;;;;;7338846;19;107728;-83
2022/07/09 12:06:16;;;;;;;1.38;0.50;;;25.50;96.80;;;;;;7336431;19;108330;-83
2022/07/09 12:08:43;;;;;;;3.03;0.45;;;25.70;95.70;;;;;;7339226;19;109640;-84
2022/07/09 12:11:10;;;;;;;2.67;0.50;;;25.50;96.20;;;;;;7338543;19;107125;-83
2022/07/09 12:13:37;;;;;;;2.08;0.57;;;25.50;96.50;;;;;;7340120;19;107508;-83
2022/07/09 12:16:04;;;;;;;1.08;0.45;;;25.70;96.70;;;;;;7339373;19;107801;-83
2022/07/09 12:18:32;;;;;;;2.78;0.50;;;25.90;96.40;;;;;;7344862;19;108543;-82
2022/07/09 12:20:59;;;;;;;1.35;0.40;;;26.00;95.50;;;;;;7340712;19;108655;-83
2022/07/09 12:23:26;;;;;;;5.93;0.70;;;25.90;96.10;;;;;;7336611;19;108376;-83
2022/07/09 12:25:53;;;;;;;2.00;0.45;;;25.90;95.90;;;;;;7340838;19;108419;-83
2022/07/09 12:28:20;;;;;;;1.38;0.50;;;25.90;95.30;;;;;;7340959;19;107410;-83
2022/07/09 12:30:49;;;;;;;1.98;0.43;;;25.70;94.40;;;;;;7339929;19;108418;-83
2022/07/09 12:33:16;;;;;;;1.35;0.57;;;25.60;95.50;;;;;;7337874;19;108269;-83
2022/07/09 12:35:43;;;;;;;4.28;0.50;;;25.80;95.60;;;;;;7335354;19;107598;-83